Time;durP1;ratioP1;P1;durP2;ratioP2;P2;SDS_P1;SDS_P2;PMS_P1;PMS_P2;Temp;Humidity;BMP_temperature;BMP_pressure;BME280_temperature;BME280_humidity;BME280_pressure;Samples;Min_cycle;Max_cycle;Signal;HPM_P1;HPM_P2
2024/03/12 06:56:01;;;;;;;20.95;12.75;;;;;;;;;;4860804;29;20045;-96
2024/03/12 07:08:21;;;;;;;24.30;13.80;;;;;;;;;;4483793;23;20240;-91
2024/03/12 07:11:26;;;;;;;22.67;13.95;;;;;;;;;;4947538;29;20062;-96
2024/03/12 07:16:53;;;;;;;16.80;9.60;;;;;;;;;;5355391;23;20059;-96
2024/03/12 07:19:37;;;;;;;;;;;;;;;;;;;;;
2024/03/12 07:46:02;;;;;;;3.05;2.10;;;;;;;;;;5321022;23;20055;-96
2024/03/12 07:48:56;;;;;;;2.47;1.70;;;;;;;;;;4927614;29;20047;-95
2024/03/12 07:56:48;;;;;;;3.03;1.85;;;;;;;;;;4958313;29;20065;-95
2024/03/12 07:59:14;;;;;;;4.32;1.90;;;;;;;;;;4944290;29;20039;-95
2024/03/12 08:01:41;;;;;;;3.55;2.03;;;;;;;;;;4944796;29;20030;-96
2024/03/12 08:04:07;;;;;;;3.97;2.85;;;;;;;;;;4944407;29;20031;-95
2024/03/12 08:07:13;;;;;;;2.60;1.98;;;;;;;;;;4946057;29;20074;-95
2024/03/12 08:15:44;;;;;;;4.75;2.58;;;;;;;;;;5141890;23;19929;-96
2024/03/12 08:18:29;;;;;;;3.47;2.22;;;;;;;;;;4953236;29;20023;-96
2024/03/12 08:41:17;;;;;;;7.38;2.95;;;;;;;;;;2860645;23;20525;31
2024/03/12 08:43:43;;;;;;;4.22;2.60;;;;;;;;;;4921619;29;20372;-94
2024/03/12 08:46:16;;;;;;;5.10;3.30;;;;;;;;;;4922554;29;20036;-95
2024/03/12 08:48:42;;;;;;;3.92;2.00;;;;;;;;;;4922653;29;20031;-94
2024/03/12 08:51:09;;;;;;;3.95;2.47;;;;;;;;;;4922752;29;20036;-93
2024/03/12 08:53:37;;;;;;;2.60;1.80;;;;;;;;;;4922244;29;20047;-95
2024/03/12 08:56:04;;;;;;;2.53;1.70;;;;;;;;;;4926862;29;20051;-94
2024/03/12 08:58:31;;;;;;;2.92;1.80;;;;;;;;;;4938490;29;20039;-94
2024/03/12 09:00:57;;;;;;;3.10;2.10;;;;;;;;;;4938388;29;20019;-94
2024/03/12 09:03:23;;;;;;;2.85;2.10;;;;;;;;;;4931512;29;20028;-95
2024/03/12 09:05:59;;;;;;;2.70;2.35;;;;;;;;;;4925155;29;20039;-94
2024/03/12 09:09:01;;;;;;;6.05;2.72;;;;;;;;;;4927002;29;20078;-96
2024/03/12 09:11:27;;;;;;;3.03;2.25;;;;;;;;;;4923225;29;20456;-94
2024/03/12 09:14:30;;;;;;;3.47;2.20;;;;;;;;;;4945022;28;20051;-95
2024/03/12 09:16:57;;;;;;;3.78;2.50;;;;;;;;;;4938987;28;20027;-93
2024/03/12 09:19:24;;;;;;;3.20;2.30;;;;;;;;;;4932731;29;20042;-96
2024/03/12 09:22:25;;;;;;;;;;;;;;;;;;;;;
2024/03/12 09:31:49;;;;;;;5.25;2.65;;;;;;;;;;4959987;28;20054;-94
2024/03/12 09:35:06;;;;;;;;;;;;;;;;;;;;;
2024/03/12 09:37:49;;;;;;;4.47;2.78;;;;;;;;;;4910177;29;20119;-96
2024/03/12 09:40:43;;;;;;;4.05;3.22;;;;;;;;;;4887891;29;20123;-96
2024/03/12 09:43:12;;;;;;;3.97;2.95;;;;;;;;;;4872747;29;20040;-95
2024/03/12 09:45:44;;;;;;;4.53;2.72;;;;;;;;;;4886670;29;20493;-96
2024/03/12 09:48:16;;;;;;;5.85;3.85;;;;;;;;;;4900545;29;20032;-96
2024/03/12 09:50:43;;;;;;;4.10;3.70;;;;;;;;;;4884738;29;20033;-94
2024/03/12 09:53:15;;;;;;;4.82;3.65;;;;;;;;;;4900656;29;20124;-96
2024/03/12 09:55:41;;;;;;;4.05;3.40;;;;;;;;;;4885145;29;20531;-95
2024/03/12 09:58:08;;;;;;;4.57;3.47;;;;;;;;;;4900810;28;20034;-91
2024/03/12 10:00:46;;;;;;;4.03;3.55;;;;;;;;;;4963493;28;20099;-92
2024/03/12 10:03:55;;;;;;;;;;;;;;;;;;;;;
2024/03/12 10:06:23;;;;;;;8.02;7.32;;;;;;;;;;4959147;29;20027;-96
2024/03/12 10:11:47;;;;;;;8.23;7.53;;;;;;;;;;4930051;29;20020;-94
2024/03/12 10:14:32;;;;;;;;;;;;;;;;;;;;;
2024/03/12 10:17:28;;;;;;;5.82;5.15;;;;;;;;;;4959030;29;20024;-96
2024/03/12 10:20:08;;;;;;;7.43;6.85;;;;;;;;;;4948915;29;20034;-93
2024/03/12 10:22:34;;;;;;;8.00;7.40;;;;;;;;;;4947064;29;20476;-94
2024/03/12 10:25:10;;;;;;;7.45;6.80;;;;;;;;;;4940719;29;20483;-96
2024/03/12 10:28:02;;;;;;;8.68;8.07;;;;;;;;;;4950741;29;20035;-96
2024/03/12 10:30:28;;;;;;;10.15;9.45;;;;;;;;;;4956998;28;20055;-95
2024/03/12 10:32:55;;;;;;;7.50;6.90;;;;;;;;;;4946897;29;20055;-94
2024/03/12 10:35:22;;;;;;;6.70;6.25;;;;;;;;;;4940282;29;20023;-96
2024/03/12 10:37:51;;;;;;;10.65;9.80;;;;;;;;;;4940651;29;20043;-95
2024/03/12 10:40:26;;;;;;;10.93;9.82;;;;;;;;;;4941468;29;20375;-91
2024/03/12 10:42:57;;;;;;;9.80;9.18;;;;;;;;;;4940833;29;20042;-96
2024/03/12 10:45:44;;;;;;;7.57;7.07;;;;;;;;;;4940153;29;20027;-96
2024/03/12 10:48:11;;;;;;;9.32;8.68;;;;;;;;;;4941541;29;20042;-95
2024/03/12 10:50:40;;;;;;;10.45;9.82;;;;;;;;;;4942615;29;20030;-96
2024/03/12 10:53:07;;;;;;;3.50;3.22;;;;;;;;;;4942215;29;20067;-96
2024/03/12 10:55:34;;;;;;;2.53;2.33;;;;;;;;;;4947540;29;20063;-94
2024/03/12 10:58:05;;;;;;;4.90;4.50;;;;;;;;;;4947156;29;20112;-95
2024/03/12 11:00:39;;;;;;;4.18;3.88;;;;;;;;;;4950591;29;20031;-95
2024/03/12 11:03:10;;;;;;;7.13;6.63;;;;;;;;;;4938325;29;20041;-96
2024/03/12 11:05:38;;;;;;;8.38;7.88;;;;;;;;;;4940834;29;20109;-95
2024/03/12 11:08:13;;;;;;;4.50;4.10;;;;;;;;;;4940339;29;20126;-96
2024/03/12 11:10:43;;;;;;;5.82;5.43;;;;;;;;;;4928264;29;20035;-93
2024/03/12 11:13:10;;;;;;;7.47;7.03;;;;;;;;;;4942841;29;20043;-95
2024/03/12 11:15:41;;;;;;;7.35;6.88;;;;;;;;;;4943889;29;20046;-92
2024/03/12 11:18:10;;;;;;;6.95;6.55;;;;;;;;;;4944531;29;20027;-96
2024/03/12 11:20:40;;;;;;;4.65;4.35;;;;;;;;;;4941268;29;20023;-92
2024/03/12 11:23:10;;;;;;;7.85;7.35;;;;;;;;;;4941364;29;20119;-96
2024/03/12 11:25:39;;;;;;;7.03;6.50;;;;;;;;;;4940922;29;20073;-95
2024/03/12 11:28:26;;;;;;;8.30;7.80;;;;;;;;;;5173590;23;20035;-95
2024/03/12 11:31:04;;;;;;;8.70;7.93;;;;;;;;;;4939799;29;20031;-96
2024/03/12 11:33:55;;;;;;;8.88;8.27;;;;;;;;;;4930823;29;20115;-95
2024/03/12 11:36:56;;;;;;;6.38;5.88;;;;;;;;;;4936672;29;20087;-96
2024/03/12 11:39:31;;;;;;;5.45;5.05;;;;;;;;;;4928104;29;20036;-93
2024/03/12 11:54:29;;;;;;;6.63;6.22;;;;;;;;;;5433055;23;20067;-96
2024/03/12 11:56:57;;;;;;;5.93;5.53;;;;;;;;;;4956153;28;20054;-96
2024/03/12 12:02:45;;;;;;;3.67;3.38;;;;;;;;;;4957668;29;20054;-95
2024/03/12 12:05:15;;;;;;;7.00;6.55;;;;;;;;;;4946407;29;20424;-96
2024/03/12 12:07:51;;;;;;;8.82;8.32;;;;;;;;;;4944015;29;20019;-95
2024/03/12 12:10:20;;;;;;;5.65;5.32;;;;;;;;;;4942522;29;20045;-95
2024/03/12 12:12:48;;;;;;;11.45;10.85;;;;;;;;;;4956099;28;20059;-93
2024/03/12 12:15:43;;;;;;;11.32;10.70;;;;;;;;;;4946823;29;20023;-95
2024/03/12 12:18:12;;;;;;;12.15;11.48;;;;;;;;;;4959773;28;20023;-96
2024/03/12 12:20:44;;;;;;;13.15;12.40;;;;;;;;;;4956383;29;20047;-96
2024/03/12 12:23:23;;;;;;;16.92;15.95;;;;;;;;;;4946149;29;20022;-94
2024/03/12 12:25:57;;;;;;;9.13;8.20;;;;;;;;;;4952523;29;20028;-96
2024/03/12 12:28:26;;;;;;;8.65;8.05;;;;;;;;;;4950145;29;20575;-96
2024/03/12 12:34:05;;;;;;;8.75;8.25;;;;;;;;;;4951894;29;20069;-94
2024/03/12 12:36:59;;;;;;;8.48;7.88;;;;;;;;;;4949549;29;20440;-95
2024/03/12 12:39:47;;;;;;;8.77;8.20;;;;;;;;;;4938985;29;20484;-95
2024/03/12 12:42:17;;;;;;;14.73;13.82;;;;;;;;;;4949932;29;20120;-96
2024/03/12 12:44:53;;;;;;;18.35;17.25;;;;;;;;;;4954684;29;20035;-94
2024/03/12 12:53:55;;;;;;;;;;;;;;;;;;;;;
2024/03/12 13:03:23;;;;;;;40.92;38.60;;;;;;;;;;4956213;29;20047;-96
2024/03/12 13:05:50;;;;;;;34.75;32.83;;;;;;;;;;4926175;29;20031;-94
2024/03/12 13:08:26;;;;;;;27.38;25.90;;;;;;;;;;4931471;29;20042;-95
2024/03/12 13:11:04;;;;;;;23.83;22.42;;;;;;;;;;4926183;29;20145;-95
2024/03/12 13:13:43;;;;;;;43.38;40.97;;;;;;;;;;4928310;29;20460;-95
2024/03/12 13:16:23;;;;;;;50.95;48.28;;;;;;;;;;4926535;29;20043;-96
2024/03/12 13:18:55;;;;;;;40.83;38.60;;;;;;;;;;4928940;29;20031;-95
2024/03/12 13:21:23;;;;;;;49.85;47.08;;;;;;;;;;4926523;29;20023;-96
2024/03/12 13:37:07;;;;;;;37.63;35.63;;;;;;;;;;4953345;29;20031;-95
2024/03/12 13:39:54;;;;;;;51.35;48.63;;;;;;;;;;4834169;29;20034;-94
2024/03/12 14:22:14;;;;;;;38.08;35.42;;;;;;;;;;5056632;23;20083;-95
2024/03/12 14:40:20;;;;;;;33.40;31.52;;;;;;;;;;5307392;23;20050;-94
2024/03/12 14:43:15;;;;;;;37.38;35.08;;;;;;;;;;4952259;29;20022;-95
2024/03/12 14:52:38;;;;;;;38.10;35.95;;;;;;;;;;4862493;29;20087;-95
2024/03/12 14:55:06;;;;;;;26.23;24.70;;;;;;;;;;4840156;29;20041;-93
2024/03/12 14:57:46;;;;;;;;;;;;;;;;;;;;;
2024/03/12 15:00:33;;;;;;;33.83;31.92;;;;;;;;;;4891694;29;20109;-93
2024/03/12 15:03:05;;;;;;;25.85;24.40;;;;;;;;;;4871214;29;20063;-95
2024/03/12 15:18:12;;;;;;;16.77;15.77;;;;;;;;;;5038337;23;20106;-96
2024/03/12 15:34:06;;;;;;;14.38;13.48;;;;;;;;;;5019915;23;20051;-95
2024/03/12 15:39:39;;;;;;;10.48;9.77;;;;;;;;;;4957185;29;20031;-95
2024/03/12 15:42:43;;;;;;;17.10;15.43;;;;;;;;;;4941031;29;20480;-94
2024/03/12 15:51:32;;;;;;;12.63;11.82;;;;;;;;;;4856006;29;20037;-94
2024/03/12 15:54:30;;;;;;;15.63;14.63;;;;;;;;;;4849413;29;20083;-94
2024/03/12 15:57:24;;;;;;;10.98;10.18;;;;;;;;;;4798241;29;20442;-93
2024/03/12 16:12:45;;;;;;;12.70;11.85;;;;;;;;;;4908354;28;20076;-95
2024/03/12 16:31:18;;;;;;;;;;;;;;;;;;;;;
2024/03/12 16:34:04;;;;;;;8.18;6.43;;;;;;;;;;4962699;29;20043;-96
2024/03/12 16:37:57;;;;;;;6.85;6.25;;;;;;;;;;4954045;29;20071;-96
2024/03/12 16:39:59;;;;;;;7.97;7.18;;;;;;;;;;4959962;29;20035;-95
2024/03/12 16:42:54;;;;;;;6.80;6.03;;;;;;;;;;4973124;29;20022;-96
2024/03/12 16:45:29;;;;;;;7.93;7.25;;;;;;;;;;4950095;29;20038;-96
2024/03/12 16:48:01;;;;;;;9.02;7.50;;;;;;;;;;4950173;29;20032;-96
2024/03/12 16:50:30;;;;;;;7.80;7.10;;;;;;;;;;4929145;29;20465;-94
2024/03/12 16:52:57;;;;;;;6.90;6.20;;;;;;;;;;4927347;29;20046;-93
2024/03/12 16:55:32;;;;;;;11.90;10.90;;;;;;;;;;4958757;29;20067;-92
2024/03/12 16:58:11;;;;;;;7.28;6.57;;;;;;;;;;4973658;29;20043;-96
2024/03/12 17:00:45;;;;;;;6.68;5.80;;;;;;;;;;4945685;29;20389;-94
2024/03/12 17:03:57;;;;;;;;;;;;;;;;;;;;;
2024/03/12 17:09:46;;;;;;;8.17;6.87;;;;;;;;;;4922827;29;20140;-96
2024/03/12 17:12:35;;;;;;;;;;;;;;;;;;;;;
2024/03/12 17:15:44;;;;;;;;;;;;;;;;;;;;;
2024/03/12 17:18:52;;;;;;;7.80;6.72;;;;;;;;;;4945715;29;20028;-95
2024/03/12 17:24:44;;;;;;;;;;;;;;;;;;;;;
2024/03/12 17:27:11;;;;;;;10.00;6.93;;;;;;;;;;4923724;29;20137;-94
2024/03/12 17:29:38;;;;;;;8.82;6.95;;;;;;;;;;4888143;29;20039;-94
2024/03/12 17:32:10;;;;;;;8.77;7.10;;;;;;;;;;4895511;29;20072;-95
2024/03/12 17:34:36;;;;;;;9.27;8.15;;;;;;;;;;4903119;29;20091;-94
2024/03/12 17:37:04;;;;;;;7.43;6.70;;;;;;;;;;4902856;29;20036;-94
2024/03/12 17:39:34;;;;;;;10.85;8.25;;;;;;;;;;4900570;29;20035;-93
2024/03/12 17:42:03;;;;;;;9.35;8.00;;;;;;;;;;4900777;29;20036;-95
2024/03/12 17:44:29;;;;;;;9.63;8.15;;;;;;;;;;4895766;29;20436;-95
2024/03/12 17:47:05;;;;;;;8.85;7.55;;;;;;;;;;4899057;29;20037;-94
2024/03/12 17:52:38;;;;;;;9.63;7.70;;;;;;;;;;4864623;29;20067;-94
2024/03/12 17:55:05;;;;;;;10.10;8.23;;;;;;;;;;4934971;29;20116;-95
2024/03/12 17:57:34;;;;;;;10.35;8.77;;;;;;;;;;4909083;29;20043;-93
2024/03/12 18:00:08;;;;;;;10.98;9.40;;;;;;;;;;4939436;29;20059;-93
2024/03/12 18:02:56;;;;;;;10.75;9.40;;;;;;;;;;4948306;29;20099;-95
2024/03/12 18:05:22;;;;;;;12.80;9.27;;;;;;;;;;4937393;29;20027;-93
2024/03/12 18:07:49;;;;;;;12.00;9.77;;;;;;;;;;4946780;29;20381;-95
2024/03/12 18:10:16;;;;;;;12.82;11.52;;;;;;;;;;4941917;29;20532;-96
2024/03/12 18:12:48;;;;;;;11.88;10.70;;;;;;;;;;4960227;29;20035;-96
2024/03/12 18:15:35;;;;;;;11.52;10.43;;;;;;;;;;4962158;29;20027;-95
2024/03/12 18:18:01;;;;;;;13.18;11.90;;;;;;;;;;4944858;29;20510;-93
2024/03/12 18:21:01;;;;;;;11.73;10.52;;;;;;;;;;4965325;29;20008;-96
2024/03/12 18:26:46;;;;;;;12.50;11.20;;;;;;;;;;5147259;23;20143;-96
2024/03/12 18:32:23;;;;;;;10.30;8.75;;;;;;;;;;4939744;29;20046;-96
2024/03/12 18:35:07;;;;;;;10.57;9.57;;;;;;;;;;4920500;29;20032;-96
2024/03/12 18:37:34;;;;;;;11.52;10.25;;;;;;;;;;4933223;29;20067;-95
2024/03/12 18:40:27;;;;;;;12.68;10.05;;;;;;;;;;4911238;29;20038;-96
2024/03/12 18:42:56;;;;;;;14.25;12.77;;;;;;;;;;4883040;29;20032;-96
2024/03/12 18:45:37;;;;;;;9.95;9.05;;;;;;;;;;4909877;29;20033;-94
2024/03/12 20:58:14;;;;;;;22.42;20.63;;;;;;;;;;3500997;23;20462;31
2024/03/12 21:00:41;;;;;;;20.50;18.75;;;;;;;;;;4936603;29;20048;-96
2024/03/12 21:03:10;;;;;;;22.23;20.52;;;;;;;;;;4935334;29;20052;-96
2024/03/12 21:05:40;;;;;;;21.52;19.83;;;;;;;;;;4918506;29;20035;-96
2024/03/12 21:08:08;;;;;;;22.65;20.75;;;;;;;;;;4929261;29;20040;-95
2024/03/12 21:10:41;;;;;;;21.27;19.45;;;;;;;;;;4929619;29;20106;-96
2024/03/12 21:13:11;;;;;;;22.08;20.20;;;;;;;;;;4928881;29;20118;-95
2024/03/12 21:15:37;;;;;;;22.67;20.88;;;;;;;;;;4916336;29;20095;-94
2024/03/12 21:18:06;;;;;;;24.63;22.52;;;;;;;;;;4930195;29;20038;-95
2024/03/12 21:20:34;;;;;;;23.85;21.92;;;;;;;;;;4930085;29;20548;-96
2024/03/12 21:23:05;;;;;;;24.60;22.75;;;;;;;;;;4956777;29;20079;-94
2024/03/12 21:25:33;;;;;;;21.52;19.63;;;;;;;;;;4939069;29;20050;-95
2024/03/12 21:27:59;;;;;;;21.33;19.40;;;;;;;;;;4929425;29;20041;-96
2024/03/12 21:30:27;;;;;;;24.83;22.65;;;;;;;;;;4926162;29;20035;-96
2024/03/12 21:32:55;;;;;;;24.92;22.92;;;;;;;;;;4927338;29;20031;-96
2024/03/12 21:35:23;;;;;;;24.60;22.50;;;;;;;;;;4938138;29;20054;-96
2024/03/12 21:37:51;;;;;;;23.40;21.58;;;;;;;;;;4933810;29;20020;-96
2024/03/12 21:40:19;;;;;;;24.98;22.90;;;;;;;;;;4937389;29;20035;-96
2024/03/12 21:42:47;;;;;;;29.20;27.08;;;;;;;;;;4943403;29;20111;-95
2024/03/12 21:45:25;;;;;;;24.75;22.75;;;;;;;;;;4931385;29;20137;-95
2024/03/12 21:47:56;;;;;;;27.73;25.48;;;;;;;;;;4925966;29;20051;-96
2024/03/12 21:50:25;;;;;;;25.58;23.20;;;;;;;;;;4923857;29;20111;-96
2024/03/12 21:52:55;;;;;;;25.27;23.10;;;;;;;;;;4946429;29;20031;-95
2024/03/12 21:55:24;;;;;;;21.55;19.75;;;;;;;;;;4934071;29;20031;-96
2024/03/12 21:57:53;;;;;;;25.35;23.15;;;;;;;;;;4933233;29;20043;-96
2024/03/12 22:00:23;;;;;;;23.50;21.70;;;;;;;;;;4960899;29;20027;-95
2024/03/12 22:02:50;;;;;;;26.48;24.30;;;;;;;;;;4941342;29;20162;-96
2024/03/12 22:05:19;;;;;;;26.63;24.30;;;;;;;;;;4932456;29;20166;-96
2024/03/12 22:07:46;;;;;;;28.85;26.55;;;;;;;;;;4931473;29;20031;-96
2024/03/12 22:10:12;;;;;;;26.70;24.63;;;;;;;;;;4932143;29;20031;-96
2024/03/12 22:12:50;;;;;;;30.67;28.13;;;;;;;;;;4931189;29;20062;-96
2024/03/12 22:15:24;;;;;;;27.98;25.63;;;;;;;;;;4948510;29;20066;-96
2024/03/12 22:18:09;;;;;;;29.77;27.48;;;;;;;;;;4929175;29;20035;-95
2024/03/12 22:20:56;;;;;;;27.15;25.00;;;;;;;;;;4930948;29;20032;-95
2024/03/12 22:23:27;;;;;;;27.88;25.73;;;;;;;;;;4937966;29;20483;-94
2024/03/12 22:26:20;;;;;;;;;;;;;;;;;;;;;
2024/03/12 22:28:54;;;;;;;28.42;26.25;;;;;;;;;;4944163;29;20111;-95
2024/03/12 22:31:20;;;;;;;30.70;28.52;;;;;;;;;;4933755;29;20028;-95
2024/03/12 22:33:49;;;;;;;29.85;27.65;;;;;;;;;;4929812;29;20054;-94
2024/03/12 22:36:15;;;;;;;29.15;26.95;;;;;;;;;;4929512;29;20091;-96
2024/03/12 22:39:02;;;;;;;32.85;30.35;;;;;;;;;;4926337;29;20060;-96
2024/03/12 22:41:32;;;;;;;33.20;30.83;;;;;;;;;;4925692;29;20032;-96
2024/03/12 22:43:59;;;;;;;31.05;28.75;;;;;;;;;;4910623;29;20122;-96
2024/03/12 22:46:25;;;;;;;29.70;27.48;;;;;;;;;;4923331;29;20465;-96
2024/03/12 22:48:53;;;;;;;30.63;28.48;;;;;;;;;;4930972;29;20031;-95
2024/03/12 22:51:30;;;;;;;33.70;31.10;;;;;;;;;;4937562;29;20016;-93
2024/03/12 22:54:01;;;;;;;33.53;31.13;;;;;;;;;;4940365;29;20044;-95
2024/03/12 22:56:37;;;;;;;;;;;;;;;;;;;;;
2024/03/12 22:59:06;;;;;;;35.90;33.15;;;;;;;;;;4888314;29;20109;-96
2024/03/12 23:01:35;;;;;;;38.80;35.88;;;;;;;;;;4925539;29;20047;-96
2024/03/12 23:04:08;;;;;;;35.15;32.50;;;;;;;;;;4924730;29;20084;-95
2024/03/12 23:06:37;;;;;;;33.67;31.30;;;;;;;;;;4905624;29;20040;-96
2024/03/12 23:09:04;;;;;;;36.70;34.05;;;;;;;;;;4892067;29;20925;-96
2024/03/12 23:11:35;;;;;;;33.45;31.05;;;;;;;;;;4921211;29;20059;-96
2024/03/12 23:14:04;;;;;;;35.08;32.22;;;;;;;;;;4925116;29;20639;-96
2024/03/12 23:16:32;;;;;;;27.85;25.65;;;;;;;;;;4926871;29;20040;-96
2024/03/12 23:18:59;;;;;;;45.42;42.17;;;;;;;;;;4910485;29;20040;-96
2024/03/12 23:21:35;;;;;;;33.45;30.90;;;;;;;;;;4926537;29;20032;-96
2024/03/12 23:24:01;;;;;;;34.63;32.15;;;;;;;;;;4924042;29;20028;-96
2024/03/12 23:26:28;;;;;;;42.63;39.63;;;;;;;;;;4929806;29;20036;-96
2024/03/12 23:29:04;;;;;;;37.92;34.95;;;;;;;;;;4912813;29;20045;-95
2024/03/12 23:31:38;;;;;;;37.88;34.85;;;;;;;;;;4940096;29;20021;-95
2024/03/12 23:34:05;;;;;;;33.72;30.83;;;;;;;;;;4919987;29;20090;-96
2024/03/12 23:39:18;;;;;;;30.45;28.15;;;;;;;;;;4913947;29;20039;-96
2024/03/12 23:41:53;;;;;;;28.65;26.35;;;;;;;;;;4927244;29;20429;-96
2024/03/12 23:44:23;;;;;;;28.30;25.90;;;;;;;;;;4931397;29;20036;-96
2024/03/12 23:46:49;;;;;;;29.25;26.65;;;;;;;;;;4928011;29;20027;-96
2024/03/12 23:49:16;;;;;;;26.83;24.55;;;;;;;;;;4936055;29;20036;-95
2024/03/12 23:51:49;;;;;;;26.73;24.40;;;;;;;;;;4929827;29;20028;-96
2024/03/12 23:54:22;;;;;;;28.02;25.63;;;;;;;;;;4910642;29;20036;-96
2024/03/12 23:57:12;;;;;;;22.52;20.50;;;;;;;;;;4931757;29;20044;-96
2024/03/12 23:59:40;;;;;;;26.13;23.85;;;;;;;;;;4930624;29;20056;-96
